Hauptseite
METAR-TAF:

METAR-TAF

Flughäfen :

Fliegerhorst Neuburg

Neuburg, Deutschland

Breite: 48-43N, Länge: 011-13E, Höhe: 380 m

Beobachtung

Neuester Wetterbericht von vor 45 Minuten, um 15:20 UTC
Wind 5 kt aus Ost
Temperatur 24°C
Luftfeuchtigkeit 54%
Luftdruck 1024 hPa
Sichtweite 10 km oder mehr
Aufgelockert bewölkt in der Höhe von 4500 ft

METAR: ETSN 231520Z 08005KT 9999 SCT045 24/14 Q1024 BLU+

Zeit: 18:05 (16:05 UTC)

Prognose

Neuester Wetterbericht von vor 2 Stunden und 50 Minuten, um 13:15 UTC
Gültige Prognose vom 23 um 14 UTC bis 23 um 23 UTC
Wind 6 kt aus Ost/Nordost
Sichtweite 10 km oder mehr
Aufgelockert bewölkt in der Höhe von 5000 ft

TAF: ETSN 231315Z 2314/2323 07006KT 9999 NSW SCT050 BY ETGL

Wetterbeobachtungen und Prognosen von mehr als 4000 Flughäfen (METAR und TAF Bericht).

Die verfügbaren Stationen werden durch gelbe und rote Markierungen auf der Karte dargestellt.

Führen Sie die Maus auf sie, um den Namen der Station zu sehen.

Darauf klicken, um die Beobachtung von Wetterbeobachtungen und Prognosen zu sehen.

Um die Karte zu ändern : klicken Sie auf den grünen Tasten mit einem schwarzen Kreuz Zum Vergrößern, auf den grünen Button mit einem Gedankenstrich zu verkleinern, oder auf die grünen Pfeile für benachbarte Karten.


METAR-TAF: